sensor_id;sensor_type;location;lat;lon;timestamp;P1;durP1;ratioP1;P2;durP2;ratioP2
1569;SDS011;778;50.120;8.698;2023-11-21T00:00:49;6.07;;;2.50;;
1569;SDS011;778;50.120;8.698;2023-11-21T00:03:18;10.57;;;3.07;;
1569;SDS011;778;50.120;8.698;2023-11-21T00:05:46;8.40;;;3.40;;
1569;SDS011;778;50.120;8.698;2023-11-21T00:08:14;4.07;;;2.37;;
1569;SDS011;778;50.120;8.698;2023-11-21T00:10:44;5.43;;;2.53;;
1569;SDS011;778;50.120;8.698;2023-11-21T00:13:12;4.60;;;2.33;;
1569;SDS011;778;50.120;8.698;2023-11-21T00:15:41;3.93;;;2.40;;
1569;SDS011;778;50.120;8.698;2023-11-21T00:18:09;5.87;;;2.57;;
1569;SDS011;778;50.120;8.698;2023-11-21T00:20:37;3.30;;;2.27;;
1569;SDS011;778;50.120;8.698;2023-11-21T00:23:06;6.53;;;2.93;;
1569;SDS011;778;50.120;8.698;2023-11-21T00:25:36;4.10;;;2.20;;
1569;SDS011;778;50.120;8.698;2023-11-21T00:28:06;5.87;;;2.40;;
1569;SDS011;778;50.120;8.698;2023-11-21T00:30:34;6.30;;;2.77;;
1569;SDS011;778;50.120;8.698;2023-11-21T00:33:02;6.27;;;2.30;;
1569;SDS011;778;50.120;8.698;2023-11-21T00:35:31;4.77;;;2.97;;
1569;SDS011;778;50.120;8.698;2023-11-21T00:38:00;4.07;;;2.57;;
1569;SDS011;778;50.120;8.698;2023-11-21T00:40:31;6.23;;;2.87;;
1569;SDS011;778;50.120;8.698;2023-11-21T00:43:00;5.37;;;2.20;;
1569;SDS011;778;50.120;8.698;2023-11-21T00:45:33;4.90;;;2.40;;
1569;SDS011;778;50.120;8.698;2023-11-21T00:48:03;7.87;;;3.50;;
1569;SDS011;778;50.120;8.698;2023-11-21T00:50:32;6.83;;;3.47;;
1569;SDS011;778;50.120;8.698;2023-11-21T00:53:00;6.43;;;3.50;;
1569;SDS011;778;50.120;8.698;2023-11-21T00:55:28;3.13;;;2.00;;
1569;SDS011;778;50.120;8.698;2023-11-21T00:57:57;5.77;;;3.20;;
1569;SDS011;778;50.120;8.698;2023-11-21T01:00:26;5.10;;;2.60;;
1569;SDS011;778;50.120;8.698;2023-11-21T01:02:55;6.90;;;2.93;;
1569;SDS011;778;50.120;8.698;2023-11-21T01:05:24;9.03;;;3.03;;
1569;SDS011;778;50.120;8.698;2023-11-21T01:07:53;3.33;;;2.37;;
1569;SDS011;778;50.120;8.698;2023-11-21T01:10:21;5.37;;;2.97;;
1569;SDS011;778;50.120;8.698;2023-11-21T01:12:49;2.73;;;2.40;;
1569;SDS011;778;50.120;8.698;2023-11-21T01:15:18;3.50;;;2.90;;
1569;SDS011;778;50.120;8.698;2023-11-21T01:17:47;6.70;;;2.83;;
1569;SDS011;778;50.120;8.698;2023-11-21T01:20:17;4.93;;;3.10;;
1569;SDS011;778;50.120;8.698;2023-11-21T01:22:46;6.73;;;2.63;;
1569;SDS011;778;50.120;8.698;2023-11-21T01:25:15;5.23;;;3.27;;
1569;SDS011;778;50.120;8.698;2023-11-21T01:27:43;4.40;;;3.20;;
1569;SDS011;778;50.120;8.698;2023-11-21T01:30:12;5.50;;;3.17;;
1569;SDS011;778;50.120;8.698;2023-11-21T01:32:41;4.10;;;3.70;;
1569;SDS011;778;50.120;8.698;2023-11-21T01:35:10;5.53;;;4.20;;
1569;SDS011;778;50.120;8.698;2023-11-21T01:37:39;3.50;;;3.20;;
1569;SDS011;778;50.120;8.698;2023-11-21T01:40:09;3.43;;;3.13;;
1569;SDS011;778;50.120;8.698;2023-11-21T01:42:41;5.63;;;3.73;;
1569;SDS011;778;50.120;8.698;2023-11-21T01:45:10;8.00;;;3.40;;
1569;SDS011;778;50.120;8.698;2023-11-21T01:47:39;4.90;;;4.00;;
1569;SDS011;778;50.120;8.698;2023-11-21T01:50:09;4.90;;;3.53;;
1569;SDS011;778;50.120;8.698;2023-11-21T01:52:44;8.50;;;4.43;;
1569;SDS011;778;50.120;8.698;2023-11-21T01:55:14;4.13;;;3.30;;
1569;SDS011;778;50.120;8.698;2023-11-21T01:57:54;5.50;;;3.60;;
1569;SDS011;778;50.120;8.698;2023-11-21T02:00:23;5.40;;;4.10;;
1569;SDS011;778;50.120;8.698;2023-11-21T02:02:55;4.80;;;3.60;;
1569;SDS011;778;50.120;8.698;2023-11-21T02:05:24;4.80;;;3.67;;
1569;SDS011;778;50.120;8.698;2023-11-21T02:07:54;7.73;;;4.00;;
1569;SDS011;778;50.120;8.698;2023-11-21T02:10:23;4.40;;;4.00;;
1569;SDS011;778;50.120;8.698;2023-11-21T02:12:51;4.77;;;4.20;;
1569;SDS011;778;50.120;8.698;2023-11-21T02:15:20;4.37;;;3.97;;
1569;SDS011;778;50.120;8.698;2023-11-21T02:17:50;4.00;;;3.60;;
1569;SDS011;778;50.120;8.698;2023-11-21T02:20:20;4.17;;;3.87;;
1569;SDS011;778;50.120;8.698;2023-11-21T02:22:53;4.50;;;4.07;;
1569;SDS011;778;50.120;8.698;2023-11-21T02:25:25;4.30;;;3.90;;
1569;SDS011;778;50.120;8.698;2023-11-21T02:27:55;4.07;;;3.77;;
1569;SDS011;778;50.120;8.698;2023-11-21T02:30:24;3.70;;;3.40;;
1569;SDS011;778;50.120;8.698;2023-11-21T02:32:54;4.47;;;3.60;;
1569;SDS011;778;50.120;8.698;2023-11-21T02:35:25;3.77;;;3.47;;
1569;SDS011;778;50.120;8.698;2023-11-21T02:37:54;4.90;;;4.53;;
1569;SDS011;778;50.120;8.698;2023-11-21T02:40:23;5.27;;;4.77;;
1569;SDS011;778;50.120;8.698;2023-11-21T02:42:53;4.00;;;3.10;;
1569;SDS011;778;50.120;8.698;2023-11-21T02:45:24;8.27;;;3.70;;
1569;SDS011;778;50.120;8.698;2023-11-21T02:47:52;2.80;;;2.40;;
1569;SDS011;778;50.120;8.698;2023-11-21T02:50:25;3.20;;;3.00;;
1569;SDS011;778;50.120;8.698;2023-11-21T02:52:55;3.30;;;3.10;;
1569;SDS011;778;50.120;8.698;2023-11-21T02:55:27;3.40;;;3.10;;
1569;SDS011;778;50.120;8.698;2023-11-21T02:57:55;3.30;;;3.10;;
1569;SDS011;778;50.120;8.698;2023-11-21T03:00:24;3.03;;;2.83;;
1569;SDS011;778;50.120;8.698;2023-11-21T03:02:53;3.77;;;3.30;;
1569;SDS011;778;50.120;8.698;2023-11-21T03:05:22;3.10;;;2.80;;
1569;SDS011;778;50.120;8.698;2023-11-21T03:07:51;3.60;;;3.30;;
1569;SDS011;778;50.120;8.698;2023-11-21T03:10:20;2.90;;;2.70;;
1569;SDS011;778;50.120;8.698;2023-11-21T03:12:49;3.53;;;3.23;;
1569;SDS011;778;50.120;8.698;2023-11-21T03:15:18;3.23;;;2.93;;
1569;SDS011;778;50.120;8.698;2023-11-21T03:17:46;3.90;;;3.10;;
1569;SDS011;778;50.120;8.698;2023-11-21T03:20:15;3.90;;;3.33;;
1569;SDS011;778;50.120;8.698;2023-11-21T03:22:44;4.00;;;3.60;;
1569;SDS011;778;50.120;8.698;2023-11-21T03:25:12;3.50;;;3.20;;
1569;SDS011;778;50.120;8.698;2023-11-21T03:27:42;3.60;;;3.30;;
1569;SDS011;778;50.120;8.698;2023-11-21T03:30:11;5.80;;;3.80;;
1569;SDS011;778;50.120;8.698;2023-11-21T03:32:41;4.30;;;3.47;;
1569;SDS011;778;50.120;8.698;2023-11-21T03:35:09;3.40;;;3.20;;
1569;SDS011;778;50.120;8.698;2023-11-21T03:37:37;3.97;;;3.67;;
1569;SDS011;778;50.120;8.698;2023-11-21T03:40:08;4.63;;;4.03;;
1569;SDS011;778;50.120;8.698;2023-11-21T03:42:39;4.17;;;3.80;;
1569;SDS011;778;50.120;8.698;2023-11-21T03:45:09;3.47;;;3.10;;
1569;SDS011;778;50.120;8.698;2023-11-21T03:47:39;3.30;;;3.00;;
1569;SDS011;778;50.120;8.698;2023-11-21T03:50:08;3.10;;;2.90;;
1569;SDS011;778;50.120;8.698;2023-11-21T03:52:37;3.87;;;3.57;;
1569;SDS011;778;50.120;8.698;2023-11-21T03:55:05;3.77;;;3.57;;
1569;SDS011;778;50.120;8.698;2023-11-21T03:57:34;3.07;;;2.87;;
1569;SDS011;778;50.120;8.698;2023-11-21T04:00:03;4.37;;;3.50;;
1569;SDS011;778;50.120;8.698;2023-11-21T04:02:38;3.60;;;3.30;;
1569;SDS011;778;50.120;8.698;2023-11-21T04:05:07;4.83;;;4.43;;
1569;SDS011;778;50.120;8.698;2023-11-21T04:07:36;4.33;;;3.93;;
1569;SDS011;778;50.120;8.698;2023-11-21T04:10:06;9.20;;;4.60;;
1569;SDS011;778;50.120;8.698;2023-11-21T04:12:36;6.03;;;4.47;;
1569;SDS011;778;50.120;8.698;2023-11-21T04:15:04;4.90;;;4.50;;
1569;SDS011;778;50.120;8.698;2023-11-21T04:17:35;4.10;;;3.80;;
1569;SDS011;778;50.120;8.698;2023-11-21T04:20:06;8.27;;;5.00;;
1569;SDS011;778;50.120;8.698;2023-11-21T04:22:37;3.70;;;3.30;;
1569;SDS011;778;50.120;8.698;2023-11-21T04:25:08;5.57;;;3.67;;
1569;SDS011;778;50.120;8.698;2023-11-21T04:27:38;5.17;;;4.67;;
1569;SDS011;778;50.120;8.698;2023-11-21T04:30:07;6.27;;;5.40;;
1569;SDS011;778;50.120;8.698;2023-11-21T04:32:36;5.03;;;4.63;;
1569;SDS011;778;50.120;8.698;2023-11-21T04:35:07;5.37;;;4.70;;
1569;SDS011;778;50.120;8.698;2023-11-21T04:37:36;5.67;;;4.70;;
1569;SDS011;778;50.120;8.698;2023-11-21T04:40:05;5.27;;;4.77;;
1569;SDS011;778;50.120;8.698;2023-11-21T04:42:35;4.40;;;4.00;;
1569;SDS011;778;50.120;8.698;2023-11-21T04:45:04;6.93;;;4.27;;
1569;SDS011;778;50.120;8.698;2023-11-21T04:47:35;4.83;;;4.43;;
1569;SDS011;778;50.120;8.698;2023-11-21T04:50:04;5.10;;;4.70;;
1569;SDS011;778;50.120;8.698;2023-11-21T04:52:35;4.97;;;4.33;;
1569;SDS011;778;50.120;8.698;2023-11-21T04:55:03;5.57;;;5.07;;
1569;SDS011;778;50.120;8.698;2023-11-21T04:57:33;7.17;;;5.83;;
1569;SDS011;778;50.120;8.698;2023-11-21T05:00:01;7.37;;;6.60;;
1569;SDS011;778;50.120;8.698;2023-11-21T05:02:32;8.30;;;6.57;;
1569;SDS011;778;50.120;8.698;2023-11-21T05:05:02;11.70;;;8.67;;
1569;SDS011;778;50.120;8.698;2023-11-21T05:07:32;8.37;;;6.50;;
1569;SDS011;778;50.120;8.698;2023-11-21T05:10:03;8.23;;;7.40;;
1569;SDS011;778;50.120;8.698;2023-11-21T05:12:35;11.47;;;7.90;;
1569;SDS011;778;50.120;8.698;2023-11-21T05:15:04;6.83;;;6.13;;
1569;SDS011;778;50.120;8.698;2023-11-21T05:17:36;8.90;;;7.97;;
1569;SDS011;778;50.120;8.698;2023-11-21T05:20:06;12.03;;;8.57;;
1569;SDS011;778;50.120;8.698;2023-11-21T05:22:37;15.67;;;9.50;;
1569;SDS011;778;50.120;8.698;2023-11-21T05:25:06;14.50;;;11.57;;
1569;SDS011;778;50.120;8.698;2023-11-21T05:27:35;13.90;;;11.40;;
1569;SDS011;778;50.120;8.698;2023-11-21T05:30:04;15.97;;;11.63;;
1569;SDS011;778;50.120;8.698;2023-11-21T05:32:35;14.10;;;11.50;;
1569;SDS011;778;50.120;8.698;2023-11-21T05:35:04;14.53;;;10.73;;
1569;SDS011;778;50.120;8.698;2023-11-21T05:37:35;18.37;;;13.20;;
1569;SDS011;778;50.120;8.698;2023-11-21T05:40:06;20.53;;;14.00;;
1569;SDS011;778;50.120;8.698;2023-11-21T05:42:36;21.73;;;14.97;;
1569;SDS011;778;50.120;8.698;2023-11-21T05:45:05;24.77;;;14.30;;
1569;SDS011;778;50.120;8.698;2023-11-21T05:47:38;21.13;;;14.80;;
1569;SDS011;778;50.120;8.698;2023-11-21T05:50:08;25.17;;;14.83;;
1569;SDS011;778;50.120;8.698;2023-11-21T05:52:40;21.43;;;15.10;;
1569;SDS011;778;50.120;8.698;2023-11-21T05:55:09;23.90;;;15.60;;
1569;SDS011;778;50.120;8.698;2023-11-21T05:57:38;23.00;;;15.63;;
1569;SDS011;778;50.120;8.698;2023-11-21T06:00:07;20.80;;;14.20;;
1569;SDS011;778;50.120;8.698;2023-11-21T06:02:41;14.83;;;11.87;;
1569;SDS011;778;50.120;8.698;2023-11-21T06:05:09;20.07;;;14.13;;
1569;SDS011;778;50.120;8.698;2023-11-21T06:07:38;20.63;;;14.63;;
1569;SDS011;778;50.120;8.698;2023-11-21T06:10:08;28.87;;;17.57;;
1569;SDS011;778;50.120;8.698;2023-11-21T06:12:39;21.50;;;16.40;;
1569;SDS011;778;50.120;8.698;2023-11-21T06:15:10;21.47;;;14.60;;
1569;SDS011;778;50.120;8.698;2023-11-21T06:17:40;26.40;;;16.43;;
1569;SDS011;778;50.120;8.698;2023-11-21T06:20:11;25.40;;;16.30;;
1569;SDS011;778;50.120;8.698;2023-11-21T06:22:42;23.17;;;16.80;;
1569;SDS011;778;50.120;8.698;2023-11-21T06:25:12;27.20;;;16.70;;
1569;SDS011;778;50.120;8.698;2023-11-21T06:27:41;28.63;;;16.40;;
1569;SDS011;778;50.120;8.698;2023-11-21T06:30:11;23.80;;;16.07;;
1569;SDS011;778;50.120;8.698;2023-11-21T06:32:42;25.77;;;15.50;;
1569;SDS011;778;50.120;8.698;2023-11-21T06:35:13;20.77;;;14.03;;
1569;SDS011;778;50.120;8.698;2023-11-21T06:37:44;27.03;;;13.47;;
1569;SDS011;778;50.120;8.698;2023-11-21T06:40:16;17.70;;;13.20;;
1569;SDS011;778;50.120;8.698;2023-11-21T06:42:47;17.70;;;11.10;;
1569;SDS011;778;50.120;8.698;2023-11-21T06:45:15;16.30;;;9.37;;
1569;SDS011;778;50.120;8.698;2023-11-21T06:47:44;10.70;;;8.27;;
1569;SDS011;778;50.120;8.698;2023-11-21T06:50:13;9.47;;;6.00;;
1569;SDS011;778;50.120;8.698;2023-11-21T06:52:41;12.20;;;8.97;;
1569;SDS011;778;50.120;8.698;2023-11-21T06:55:12;11.17;;;8.80;;
1569;SDS011;778;50.120;8.698;2023-11-21T06:57:40;13.23;;;10.27;;
1569;SDS011;778;50.120;8.698;2023-11-21T07:00:09;9.80;;;8.33;;
1569;SDS011;778;50.120;8.698;2023-11-21T07:02:38;12.13;;;8.80;;
1569;SDS011;778;50.120;8.698;2023-11-21T07:05:07;10.57;;;8.83;;
1569;SDS011;778;50.120;8.698;2023-11-21T07:07:35;16.80;;;12.00;;
1569;SDS011;778;50.120;8.698;2023-11-21T07:10:04;14.53;;;10.00;;
1569;SDS011;778;50.120;8.698;2023-11-21T07:12:35;15.20;;;12.13;;
1569;SDS011;778;50.120;8.698;2023-11-21T07:15:03;11.17;;;8.47;;
1569;SDS011;778;50.120;8.698;2023-11-21T07:17:35;14.47;;;10.33;;
1569;SDS011;778;50.120;8.698;2023-11-21T07:20:07;13.83;;;11.67;;
1569;SDS011;778;50.120;8.698;2023-11-21T07:22:37;14.13;;;10.97;;
1569;SDS011;778;50.120;8.698;2023-11-21T07:25:06;11.47;;;10.27;;
1569;SDS011;778;50.120;8.698;2023-11-21T07:27:37;11.97;;;10.50;;
1569;SDS011;778;50.120;8.698;2023-11-21T07:30:06;13.30;;;10.30;;
1569;SDS011;778;50.120;8.698;2023-11-21T07:32:37;11.77;;;9.93;;
1569;SDS011;778;50.120;8.698;2023-11-21T07:35:07;13.77;;;9.30;;
1569;SDS011;778;50.120;8.698;2023-11-21T07:37:36;12.93;;;9.90;;
1569;SDS011;778;50.120;8.698;2023-11-21T07:40:05;11.30;;;9.67;;
1569;SDS011;778;50.120;8.698;2023-11-21T07:42:37;15.03;;;9.57;;
1569;SDS011;778;50.120;8.698;2023-11-21T07:45:06;12.13;;;10.67;;
1569;SDS011;778;50.120;8.698;2023-11-21T07:47:34;11.77;;;9.60;;
1569;SDS011;778;50.120;8.698;2023-11-21T07:50:03;13.10;;;10.43;;
1569;SDS011;778;50.120;8.698;2023-11-21T07:52:34;12.83;;;11.43;;
1569;SDS011;778;50.120;8.698;2023-11-21T07:55:03;11.10;;;8.97;;
1569;SDS011;778;50.120;8.698;2023-11-21T07:57:31;18.23;;;11.20;;
1569;SDS011;778;50.120;8.698;2023-11-21T08:00:01;25.40;;;11.40;;
1569;SDS011;778;50.120;8.698;2023-11-21T08:02:37;11.80;;;9.80;;
1569;SDS011;778;50.120;8.698;2023-11-21T08:05:09;13.73;;;9.87;;
1569;SDS011;778;50.120;8.698;2023-11-21T08:07:50;12.77;;;9.60;;
1569;SDS011;778;50.120;8.698;2023-11-21T08:10:18;13.17;;;10.00;;
1569;SDS011;778;50.120;8.698;2023-11-21T08:12:48;15.57;;;10.40;;
1569;SDS011;778;50.120;8.698;2023-11-21T08:15:18;12.23;;;10.70;;
1569;SDS011;778;50.120;8.698;2023-11-21T08:17:46;13.80;;;11.57;;
1569;SDS011;778;50.120;8.698;2023-11-21T08:20:15;12.30;;;10.17;;
1569;SDS011;778;50.120;8.698;2023-11-21T08:22:44;17.57;;;12.27;;
1569;SDS011;778;50.120;8.698;2023-11-21T08:25:14;15.33;;;11.00;;
1569;SDS011;778;50.120;8.698;2023-11-21T08:27:43;14.27;;;10.47;;
1569;SDS011;778;50.120;8.698;2023-11-21T08:30:12;15.20;;;11.20;;
1569;SDS011;778;50.120;8.698;2023-11-21T08:32:44;15.10;;;11.80;;
1569;SDS011;778;50.120;8.698;2023-11-21T08:35:13;14.70;;;11.40;;
1569;SDS011;778;50.120;8.698;2023-11-21T08:37:42;13.77;;;10.53;;
1569;SDS011;778;50.120;8.698;2023-11-21T08:40:11;14.80;;;11.00;;
1569;SDS011;778;50.120;8.698;2023-11-21T08:42:43;15.20;;;11.53;;
1569;SDS011;778;50.120;8.698;2023-11-21T08:45:12;13.50;;;11.63;;
1569;SDS011;778;50.120;8.698;2023-11-21T08:47:40;19.17;;;10.10;;
1569;SDS011;778;50.120;8.698;2023-11-21T08:50:12;15.50;;;11.50;;
1569;SDS011;778;50.120;8.698;2023-11-21T08:52:41;12.33;;;10.60;;
1569;SDS011;778;50.120;8.698;2023-11-21T08:55:09;13.63;;;10.67;;
1569;SDS011;778;50.120;8.698;2023-11-21T08:57:39;15.40;;;10.00;;
1569;SDS011;778;50.120;8.698;2023-11-21T09:00:08;12.90;;;10.10;;
1569;SDS011;778;50.120;8.698;2023-11-21T09:02:38;12.10;;;9.20;;
1569;SDS011;778;50.120;8.698;2023-11-21T09:05:08;15.50;;;10.67;;
1569;SDS011;778;50.120;8.698;2023-11-21T09:07:39;14.13;;;10.67;;
1569;SDS011;778;50.120;8.698;2023-11-21T09:10:09;11.07;;;9.30;;
1569;SDS011;778;50.120;8.698;2023-11-21T09:12:38;11.87;;;8.47;;
1569;SDS011;778;50.120;8.698;2023-11-21T09:15:06;9.60;;;7.63;;
1569;SDS011;778;50.120;8.698;2023-11-21T09:17:38;12.10;;;9.13;;
1569;SDS011;778;50.120;8.698;2023-11-21T09:20:07;13.23;;;8.63;;
1569;SDS011;778;50.120;8.698;2023-11-21T09:22:36;9.40;;;6.53;;
1569;SDS011;778;50.120;8.698;2023-11-21T09:25:07;9.77;;;7.03;;
1569;SDS011;778;50.120;8.698;2023-11-21T09:27:36;8.40;;;7.43;;
1569;SDS011;778;50.120;8.698;2023-11-21T09:30:05;9.20;;;7.80;;
1569;SDS011;778;50.120;8.698;2023-11-21T09:32:35;17.30;;;8.47;;
1569;SDS011;778;50.120;8.698;2023-11-21T09:35:07;14.77;;;7.40;;
1569;SDS011;778;50.120;8.698;2023-11-21T09:37:36;9.10;;;6.97;;
1569;SDS011;778;50.120;8.698;2023-11-21T09:40:07;11.23;;;7.70;;
1569;SDS011;778;50.120;8.698;2023-11-21T09:42:40;12.77;;;8.30;;
1569;SDS011;778;50.120;8.698;2023-11-21T09:45:17;10.93;;;8.20;;
1569;SDS011;778;50.120;8.698;2023-11-21T09:47:51;13.07;;;7.53;;
1569;SDS011;778;50.120;8.698;2023-11-21T09:50:22;14.70;;;6.70;;
1569;SDS011;778;50.120;8.698;2023-11-21T09:52:57;11.23;;;7.50;;
1569;SDS011;778;50.120;8.698;2023-11-21T09:55:34;11.47;;;8.00;;
1569;SDS011;778;50.120;8.698;2023-11-21T09:58:03;12.43;;;7.90;;
1569;SDS011;778;50.120;8.698;2023-11-21T10:00:34;14.10;;;7.63;;
1569;SDS011;778;50.120;8.698;2023-11-21T10:03:03;11.13;;;8.10;;
1569;SDS011;778;50.120;8.698;2023-11-21T10:05:31;12.80;;;8.60;;
1569;SDS011;778;50.120;8.698;2023-11-21T10:08:02;12.93;;;8.40;;
1569;SDS011;778;50.120;8.698;2023-11-21T10:10:33;9.03;;;8.10;;
1569;SDS011;778;50.120;8.698;2023-11-21T10:13:04;11.80;;;7.67;;
1569;SDS011;778;50.120;8.698;2023-11-21T10:15:34;10.73;;;7.63;;
1569;SDS011;778;50.120;8.698;2023-11-21T10:18:04;9.07;;;7.70;;
1569;SDS011;778;50.120;8.698;2023-11-21T10:20:36;7.73;;;6.37;;
1569;SDS011;778;50.120;8.698;2023-11-21T10:23:06;12.83;;;6.70;;
1569;SDS011;778;50.120;8.698;2023-11-21T10:25:37;6.67;;;5.90;;
1569;SDS011;778;50.120;8.698;2023-11-21T10:28:06;7.40;;;6.20;;
1569;SDS011;778;50.120;8.698;2023-11-21T10:30:35;9.60;;;6.10;;
1569;SDS011;778;50.120;8.698;2023-11-21T10:33:05;9.47;;;5.50;;
1569;SDS011;778;50.120;8.698;2023-11-21T10:35:38;8.60;;;5.10;;
1569;SDS011;778;50.120;8.698;2023-11-21T10:38:20;7.90;;;6.00;;
1569;SDS011;778;50.120;8.698;2023-11-21T10:40:51;10.30;;;6.20;;
1569;SDS011;778;50.120;8.698;2023-11-21T10:43:24;11.90;;;6.50;;
1569;SDS011;778;50.120;8.698;2023-11-21T10:45:53;9.20;;;5.57;;
1569;SDS011;778;50.120;8.698;2023-11-21T10:48:26;10.70;;;6.40;;
1569;SDS011;778;50.120;8.698;2023-11-21T10:50:54;8.20;;;6.10;;
1569;SDS011;778;50.120;8.698;2023-11-21T10:53:24;8.73;;;7.00;;
1569;SDS011;778;50.120;8.698;2023-11-21T10:56:00;9.67;;;6.67;;
1569;SDS011;778;50.120;8.698;2023-11-21T10:58:32;7.40;;;6.37;;
1569;SDS011;778;50.120;8.698;2023-11-21T11:01:02;9.30;;;6.73;;
1569;SDS011;778;50.120;8.698;2023-11-21T11:03:33;8.27;;;5.97;;
1569;SDS011;778;50.120;8.698;2023-11-21T11:06:04;13.27;;;6.30;;
1569;SDS011;778;50.120;8.698;2023-11-21T11:08:39;6.60;;;5.87;;
1569;SDS011;778;50.120;8.698;2023-11-21T11:11:08;8.30;;;6.77;;
1569;SDS011;778;50.120;8.698;2023-11-21T11:13:37;11.90;;;6.90;;
1569;SDS011;778;50.120;8.698;2023-11-21T11:16:06;8.10;;;7.30;;
1569;SDS011;778;50.120;8.698;2023-11-21T11:18:37;6.73;;;6.03;;
1569;SDS011;778;50.120;8.698;2023-11-21T11:21:07;10.00;;;7.30;;
1569;SDS011;778;50.120;8.698;2023-11-21T11:23:53;7.80;;;5.93;;
1569;SDS011;778;50.120;8.698;2023-11-21T11:26:37;10.80;;;6.30;;
1569;SDS011;778;50.120;8.698;2023-11-21T11:29:13;8.70;;;7.80;;
1569;SDS011;778;50.120;8.698;2023-11-21T11:31:51;8.67;;;7.00;;
1569;SDS011;778;50.120;8.698;2023-11-21T11:34:32;9.70;;;6.80;;
1569;SDS011;778;50.120;8.698;2023-11-21T11:37:05;8.53;;;6.87;;
1569;SDS011;778;50.120;8.698;2023-11-21T11:39:37;9.70;;;7.90;;
1569;SDS011;778;50.120;8.698;2023-11-21T11:42:10;9.60;;;7.53;;
1569;SDS011;778;50.120;8.698;2023-11-21T11:44:50;10.23;;;7.20;;
1569;SDS011;778;50.120;8.698;2023-11-21T11:47:22;8.50;;;7.50;;
1569;SDS011;778;50.120;8.698;2023-11-21T11:50:00;11.73;;;7.90;;
1569;SDS011;778;50.120;8.698;2023-11-21T11:52:40;7.50;;;6.40;;
1569;SDS011;778;50.120;8.698;2023-11-21T11:55:11;12.50;;;6.43;;
1569;SDS011;778;50.120;8.698;2023-11-21T11:57:41;13.23;;;7.57;;
1569;SDS011;778;50.120;8.698;2023-11-21T12:00:10;9.33;;;7.40;;
1569;SDS011;778;50.120;8.698;2023-11-21T12:02:44;12.30;;;6.40;;
1569;SDS011;778;50.120;8.698;2023-11-21T12:05:14;8.60;;;6.40;;
1569;SDS011;778;50.120;8.698;2023-11-21T12:07:45;8.97;;;5.93;;
1569;SDS011;778;50.120;8.698;2023-11-21T12:10:17;8.87;;;7.00;;
1569;SDS011;778;50.120;8.698;2023-11-21T12:12:47;9.60;;;6.20;;
1569;SDS011;778;50.120;8.698;2023-11-21T12:15:16;7.00;;;6.10;;
1569;SDS011;778;50.120;8.698;2023-11-21T12:17:45;9.37;;;6.17;;
1569;SDS011;778;50.120;8.698;2023-11-21T12:20:15;8.67;;;7.30;;
1569;SDS011;778;50.120;8.698;2023-11-21T12:22:46;9.13;;;6.83;;
1569;SDS011;778;50.120;8.698;2023-11-21T12:25:17;10.50;;;6.43;;
1569;SDS011;778;50.120;8.698;2023-11-21T12:27:46;9.43;;;6.97;;
1569;SDS011;778;50.120;8.698;2023-11-21T12:30:16;12.33;;;8.30;;
1569;SDS011;778;50.120;8.698;2023-11-21T12:32:48;9.90;;;7.43;;
1569;SDS011;778;50.120;8.698;2023-11-21T12:35:17;10.70;;;6.83;;
1569;SDS011;778;50.120;8.698;2023-11-21T12:37:48;11.83;;;7.30;;
1569;SDS011;778;50.120;8.698;2023-11-21T12:40:19;9.17;;;7.20;;
1569;SDS011;778;50.120;8.698;2023-11-21T12:42:51;9.93;;;6.30;;
1569;SDS011;778;50.120;8.698;2023-11-21T12:45:21;8.97;;;6.70;;
1569;SDS011;778;50.120;8.698;2023-11-21T12:47:54;7.17;;;5.63;;
1569;SDS011;778;50.120;8.698;2023-11-21T12:50:27;7.33;;;6.57;;
1569;SDS011;778;50.120;8.698;2023-11-21T12:52:58;8.67;;;6.27;;
1569;SDS011;778;50.120;8.698;2023-11-21T12:55:31;9.47;;;6.43;;
1569;SDS011;778;50.120;8.698;2023-11-21T12:58:05;9.10;;;6.10;;
1569;SDS011;778;50.120;8.698;2023-11-21T13:00:38;8.93;;;6.50;;
1569;SDS011;778;50.120;8.698;2023-11-21T13:03:09;12.40;;;7.80;;
1569;SDS011;778;50.120;8.698;2023-11-21T13:05:40;9.27;;;6.70;;
1569;SDS011;778;50.120;8.698;2023-11-21T13:08:14;7.67;;;6.57;;
1569;SDS011;778;50.120;8.698;2023-11-21T13:10:48;9.57;;;7.07;;
1569;SDS011;778;50.120;8.698;2023-11-21T13:13:18;7.43;;;6.70;;
1569;SDS011;778;50.120;8.698;2023-11-21T13:15:50;12.63;;;6.73;;
1569;SDS011;778;50.120;8.698;2023-11-21T13:18:22;17.20;;;7.10;;
1569;SDS011;778;50.120;8.698;2023-11-21T13:20:51;12.37;;;7.67;;
1569;SDS011;778;50.120;8.698;2023-11-21T13:23:21;8.50;;;6.37;;
1569;SDS011;778;50.120;8.698;2023-11-21T13:25:51;8.37;;;6.50;;
1569;SDS011;778;50.120;8.698;2023-11-21T13:28:30;7.80;;;6.37;;
1569;SDS011;778;50.120;8.698;2023-11-21T13:31:00;8.13;;;6.90;;
1569;SDS011;778;50.120;8.698;2023-11-21T13:33:37;11.23;;;6.97;;
1569;SDS011;778;50.120;8.698;2023-11-21T13:36:07;8.43;;;6.53;;
1569;SDS011;778;50.120;8.698;2023-11-21T13:38:37;8.50;;;5.93;;
1569;SDS011;778;50.120;8.698;2023-11-21T13:41:11;8.83;;;6.47;;
1569;SDS011;778;50.120;8.698;2023-11-21T13:43:41;6.67;;;6.03;;
1569;SDS011;778;50.120;8.698;2023-11-21T13:46:17;7.20;;;6.50;;
1569;SDS011;778;50.120;8.698;2023-11-21T13:48:49;7.80;;;6.30;;
1569;SDS011;778;50.120;8.698;2023-11-21T13:51:23;6.90;;;5.50;;
1569;SDS011;778;50.120;8.698;2023-11-21T13:54:00;7.67;;;5.83;;
1569;SDS011;778;50.120;8.698;2023-11-21T13:56:30;11.90;;;6.47;;
1569;SDS011;778;50.120;8.698;2023-11-21T13:58:59;7.83;;;6.10;;
1569;SDS011;778;50.120;8.698;2023-11-21T14:01:36;10.17;;;6.37;;
1569;SDS011;778;50.120;8.698;2023-11-21T14:04:21;10.83;;;5.70;;
1569;SDS011;778;50.120;8.698;2023-11-21T14:07:05;8.87;;;6.17;;
1569;SDS011;778;50.120;8.698;2023-11-21T14:09:49;9.47;;;6.17;;
1569;SDS011;778;50.120;8.698;2023-11-21T14:12:20;9.03;;;5.80;;
1569;SDS011;778;50.120;8.698;2023-11-21T14:14:48;10.70;;;7.00;;
1569;SDS011;778;50.120;8.698;2023-11-21T14:17:17;8.67;;;6.47;;
1569;SDS011;778;50.120;8.698;2023-11-21T14:19:47;7.83;;;6.57;;
1569;SDS011;778;50.120;8.698;2023-11-21T14:22:16;8.07;;;6.10;;
1569;SDS011;778;50.120;8.698;2023-11-21T14:24:45;9.73;;;6.53;;
1569;SDS011;778;50.120;8.698;2023-11-21T14:27:13;8.90;;;6.50;;
1569;SDS011;778;50.120;8.698;2023-11-21T14:29:44;13.23;;;7.10;;
1569;SDS011;778;50.120;8.698;2023-11-21T14:32:12;8.90;;;6.50;;
1569;SDS011;778;50.120;8.698;2023-11-21T14:34:41;8.03;;;7.23;;
1569;SDS011;778;50.120;8.698;2023-11-21T14:37:13;12.40;;;7.70;;
1569;SDS011;778;50.120;8.698;2023-11-21T14:39:41;10.57;;;7.50;;
1569;SDS011;778;50.120;8.698;2023-11-21T14:42:12;9.80;;;7.27;;
1569;SDS011;778;50.120;8.698;2023-11-21T14:44:43;10.57;;;7.20;;
1569;SDS011;778;50.120;8.698;2023-11-21T14:47:12;8.77;;;6.90;;
1569;SDS011;778;50.120;8.698;2023-11-21T14:49:43;9.53;;;8.60;;
1569;SDS011;778;50.120;8.698;2023-11-21T14:52:22;11.43;;;8.77;;
1569;SDS011;778;50.120;8.698;2023-11-21T14:55:01;13.80;;;8.07;;
1569;SDS011;778;50.120;8.698;2023-11-21T14:57:57;10.90;;;8.13;;
1569;SDS011;778;50.120;8.698;2023-11-21T15:00:30;14.40;;;7.80;;
1569;SDS011;778;50.120;8.698;2023-11-21T15:03:08;13.97;;;8.53;;
1569;SDS011;778;50.120;8.698;2023-11-21T15:05:36;13.43;;;8.03;;
1569;SDS011;778;50.120;8.698;2023-11-21T15:08:06;10.20;;;7.03;;
1569;SDS011;778;50.120;8.698;2023-11-21T15:10:47;9.23;;;7.17;;
1569;SDS011;778;50.120;8.698;2023-11-21T15:13:20;11.67;;;7.80;;
1569;SDS011;778;50.120;8.698;2023-11-21T15:15:49;8.80;;;7.87;;
1569;SDS011;778;50.120;8.698;2023-11-21T15:18:20;13.83;;;10.07;;
1569;SDS011;778;50.120;8.698;2023-11-21T15:20:49;13.33;;;9.20;;
1569;SDS011;778;50.120;8.698;2023-11-21T15:23:17;12.47;;;9.50;;
1569;SDS011;778;50.120;8.698;2023-11-21T15:25:46;15.33;;;9.30;;
1569;SDS011;778;50.120;8.698;2023-11-21T15:28:14;16.33;;;10.53;;
1569;SDS011;778;50.120;8.698;2023-11-21T15:30:43;17.40;;;11.10;;
1569;SDS011;778;50.120;8.698;2023-11-21T15:33:16;16.70;;;9.53;;
1569;SDS011;778;50.120;8.698;2023-11-21T15:35:44;14.10;;;9.70;;
1569;SDS011;778;50.120;8.698;2023-11-21T15:38:12;14.37;;;9.27;;
1569;SDS011;778;50.120;8.698;2023-11-21T15:40:41;13.23;;;9.10;;